TimeAKDT,TemperatureF,Dew PointF,Humidity,Sea Level PressureIn,VisibilityMPH,Wind Direction,Wind SpeedMPH,Gust SpeedMPH,PrecipitationIn,Events,Conditions,WindDirDegrees,DateUTC
12:53 AM,46.9,39.9,77,29.33,10.0,WNW,5.8,-,N/A,,Mostly Cloudy,290,2012-09-26 08:53:00
1:53 AM,46.9,39.9,77,29.36,10.0,Calm,Calm,-,N/A,,Mostly Cloudy,0,2012-09-26 09:53:00
2:53 AM,45.0,39.0,80,29.37,10.0,Calm,Calm,-,N/A,,Mostly Cloudy,0,2012-09-26 10:53:00
3:53 AM,48.9,39.0,69,29.39,10.0,WNW,5.8,-,N/A,,Mostly Cloudy,300,2012-09-26 11:53:00
4:53 AM,44.1,39.0,82,29.39,10.0,Calm,Calm,-,N/A,,Mostly Cloudy,0,2012-09-26 12:53:00
5:53 AM,44.1,39.0,82,29.39,10.0,Calm,Calm,-,N/A,,Mostly Cloudy,0,2012-09-26 13:53:00
6:53 AM,44.1,39.9,85,29.39,10.0,WNW,4.6,-,N/A,,Mostly Cloudy,290,2012-09-26 14:53:00
7:53 AM,46.0,39.9,79,29.38,10.0,North,4.6,-,N/A,,Mostly Cloudy,360,2012-09-26 15:53:00
8:53 AM,43.0,39.0,86,29.37,10.0,Calm,Calm,-,N/A,,Clear,0,2012-09-26 16:53:00
9:53 AM,44.1,39.9,85,29.37,10.0,Calm,Calm,-,N/A,,Mostly Cloudy,0,2012-09-26 17:53:00
10:53 AM,46.0,39.9,79,29.34,10.0,NW,4.6,-,N/A,,Mostly Cloudy,310,2012-09-26 18:53:00
11:53 AM,46.9,39.9,77,29.33,10.0,WSW,3.5,-,N/A,,Mostly Cloudy,250,2012-09-26 19:53:00
12:53 PM,48.0,39.9,74,29.30,10.0,WNW,4.6,-,N/A,,Overcast,290,2012-09-26 20:53:00
1:53 PM,46.9,39.9,77,29.24,10.0,Calm,Calm,-,N/A,,Overcast,0,2012-09-26 21:53:00
2:53 PM,52.0,36.0,54,29.20,10.0,NE,5.8,-,N/A,,Mostly Cloudy,50,2012-09-26 22:53:00
3:53 PM,52.0,34.0,50,29.14,10.0,NE,8.1,-,N/A,,Overcast,40,2012-09-26 23:53:00
4:53 PM,52.0,34.0,50,29.08,10.0,North,6.9,-,N/A,,Overcast,10,2012-09-27 00:53:00
5:53 PM,53.1,33.1,47,29.01,10.0,NNE,8.1,-,N/A,,Mostly Cloudy,20,2012-09-27 01:53:00
6:53 PM,53.1,34.0,48,28.98,10.0,NE,9.2,-,N/A,,Overcast,50,2012-09-27 02:53:00
7:53 PM,52.0,34.0,50,28.93,10.0,NE,8.1,-,N/A,,Overcast,50,2012-09-27 03:53:00
8:53 PM,52.0,34.0,50,28.90,10.0,NNE,4.6,-,N/A,,Overcast,20,2012-09-27 04:53:00
9:53 PM,48.0,39.9,74,28.88,10.0,South,4.6,-,N/A,,Overcast,180,2012-09-27 05:53:00
10:53 PM,46.9,41.0,80,28.84,10.0,West,4.6,-,0.00,,Overcast,270,2012-09-27 06:53:00
11:53 PM,46.0,39.9,79,28.81,10.0,WSW,5.8,-,N/A,,Overcast,240,2012-09-27 07:53:00